sensor_id;sensor_type;location;lat;lon;timestamp;pressure;altitude;pressure_sealevel;temperature;humidity
45040;BME280;30778;53.574;7.770;2023-02-20T00:00:09;102035.06;;;3.09;54.35
45040;BME280;30778;53.574;7.770;2023-02-20T00:02:35;102045.94;;;2.77;54.81
45040;BME280;30778;53.574;7.770;2023-02-20T00:05:00;102036.91;;;2.41;55.98
45040;BME280;30778;53.574;7.770;2023-02-20T00:07:26;102035.81;;;2.24;56.86
45040;BME280;30778;53.574;7.770;2023-02-20T00:09:51;102019.47;;;2.96;54.91
45040;BME280;30778;53.574;7.770;2023-02-20T00:12:19;102030.25;;;2.62;56.17
45040;BME280;30778;53.574;7.770;2023-02-20T00:14:45;102020.84;;;2.65;55.87
45040;BME280;30778;53.574;7.770;2023-02-20T00:17:10;102019.47;;;2.98;55.38
45040;BME280;30778;53.574;7.770;2023-02-20T00:19:35;102032.06;;;2.69;55.48
45040;BME280;30778;53.574;7.770;2023-02-20T00:22:01;102044.38;;;2.93;54.93
45040;BME280;30778;53.574;7.770;2023-02-20T00:24:29;102019.16;;;2.67;56.12
45040;BME280;30778;53.574;7.770;2023-02-20T00:26:54;102012.84;;;2.42;57.04
45040;BME280;30778;53.574;7.770;2023-02-20T00:29:22;102002.88;;;2.77;55.80
45040;BME280;30778;53.574;7.770;2023-02-20T00:31:53;101981.25;;;2.66;56.41
45040;BME280;30778;53.574;7.770;2023-02-20T00:34:19;101991.31;;;3.26;54.66
45040;BME280;30778;53.574;7.770;2023-02-20T00:36:46;101977.03;;;2.71;55.95
45040;BME280;30778;53.574;7.770;2023-02-20T00:39:11;101973.81;;;2.94;55.66
45040;BME280;30778;53.574;7.770;2023-02-20T00:41:37;101970.56;;;3.16;55.42
45040;BME280;30778;53.574;7.770;2023-02-20T00:44:02;101953.88;;;2.82;56.23
45040;BME280;30778;53.574;7.770;2023-02-20T00:46:30;101948.16;;;3.15;55.14
45040;BME280;30778;53.574;7.770;2023-02-20T00:48:56;101941.22;;;3.08;55.34
45040;BME280;30778;53.574;7.770;2023-02-20T00:51:40;101943.88;;;3.16;55.50
45040;BME280;30778;53.574;7.770;2023-02-20T00:54:06;101934.34;;;3.10;55.30
45040;BME280;30778;53.574;7.770;2023-02-20T00:56:31;101938.19;;;3.62;54.44
45040;BME280;30778;53.574;7.770;2023-02-20T00:59:00;101919.03;;;3.32;55.14
45040;BME280;30778;53.574;7.770;2023-02-20T01:01:28;101925.53;;;2.85;56.20
45040;BME280;30778;53.574;7.770;2023-02-20T01:03:54;101917.84;;;2.93;56.41
45040;BME280;30778;53.574;7.770;2023-02-20T01:06:19;101929.72;;;2.75;57.08
45040;BME280;30778;53.574;7.770;2023-02-20T01:08:45;101916.84;;;2.79;57.04
45040;BME280;30778;53.574;7.770;2023-02-20T01:11:13;101920.38;;;2.85;56.75
45040;BME280;30778;53.574;7.770;2023-02-20T01:13:38;101922.31;;;2.25;58.46
45040;BME280;30778;53.574;7.770;2023-02-20T01:16:05;101919.19;;;2.54;57.71
45040;BME280;30778;53.574;7.770;2023-02-20T01:18:33;101907.47;;;2.87;57.55
45040;BME280;30778;53.574;7.770;2023-02-20T01:20:58;101903.34;;;3.13;56.46
45040;BME280;30778;53.574;7.770;2023-02-20T01:23:24;101899.91;;;3.11;56.55
45040;BME280;30778;53.574;7.770;2023-02-20T01:25:51;101879.94;;;2.90;57.15
45040;BME280;30778;53.574;7.770;2023-02-20T01:28:19;101892.69;;;2.70;57.59
45040;BME280;30778;53.574;7.770;2023-02-20T01:30:45;101892.03;;;2.97;56.36
45040;BME280;30778;53.574;7.770;2023-02-20T01:33:10;101871.84;;;2.49;58.22
45040;BME280;30778;53.574;7.770;2023-02-20T01:35:36;101842.38;;;3.31;55.96
45040;BME280;30778;53.574;7.770;2023-02-20T01:38:01;101815.88;;;2.45;58.44
45040;BME280;30778;53.574;7.770;2023-02-20T01:40:32;101815.09;;;2.55;58.00
45040;BME280;30778;53.574;7.770;2023-02-20T01:43:00;101810.19;;;2.86;57.64
45040;BME280;30778;53.574;7.770;2023-02-20T01:45:36;101812.72;;;2.80;57.39
45040;BME280;30778;53.574;7.770;2023-02-20T01:48:03;101810.75;;;2.48;58.81
45040;BME280;30778;53.574;7.770;2023-02-20T01:50:39;101815.44;;;2.96;57.40
45040;BME280;30778;53.574;7.770;2023-02-20T01:53:12;101816.78;;;2.47;58.00
45040;BME280;30778;53.574;7.770;2023-02-20T01:58:23;101792.84;;;2.65;57.94
45040;BME280;30778;53.574;7.770;2023-02-20T02:00:50;101766.69;;;2.26;59.13
45040;BME280;30778;53.574;7.770;2023-02-20T02:03:20;101752.09;;;2.30;59.38
45040;BME280;30778;53.574;7.770;2023-02-20T02:06:02;101739.53;;;2.71;57.59
45040;BME280;30778;53.574;7.770;2023-02-20T02:08:29;101732.41;;;2.41;58.44
45040;BME280;30778;53.574;7.770;2023-02-20T02:11:02;101741.09;;;2.51;58.54
45040;BME280;30778;53.574;7.770;2023-02-20T02:13:33;101744.75;;;2.84;58.16
45040;BME280;30778;53.574;7.770;2023-02-20T02:24:59;101748.22;;;2.89;58.06
45040;BME280;30778;53.574;7.770;2023-02-20T02:30:47;101724.38;;;3.33;56.52
45040;BME280;30778;53.574;7.770;2023-02-20T02:34:09;101728.56;;;3.09;57.41
45040;BME280;30778;53.574;7.770;2023-02-20T02:37:01;101715.69;;;3.22;56.84
45040;BME280;30778;53.574;7.770;2023-02-20T02:39:43;101705.28;;;3.06;56.89
45040;BME280;30778;53.574;7.770;2023-02-20T02:44:56;101721.84;;;3.51;56.02
45040;BME280;30778;53.574;7.770;2023-02-20T02:47:36;101713.31;;;3.78;55.18
45040;BME280;30778;53.574;7.770;2023-02-20T02:52:38;101710.59;;;3.29;56.49
45040;BME280;30778;53.574;7.770;2023-02-20T02:55:25;101711.50;;;3.44;56.15
45040;BME280;30778;53.574;7.770;2023-02-20T02:57:54;101696.66;;;3.06;57.15
45040;BME280;30778;53.574;7.770;2023-02-20T03:00:41;101698.38;;;2.99;57.53
45040;BME280;30778;53.574;7.770;2023-02-20T03:03:15;101696.91;;;3.75;55.41
45040;BME280;30778;53.574;7.770;2023-02-20T03:06:05;101685.69;;;3.54;55.92
45040;BME280;30778;53.574;7.770;2023-02-20T03:08:41;101680.50;;;3.48;55.96
45040;BME280;30778;53.574;7.770;2023-02-20T03:11:13;101689.13;;;3.52;55.73
45040;BME280;30778;53.574;7.770;2023-02-20T03:16:47;101653.75;;;3.42;56.01
45040;BME280;30778;53.574;7.770;2023-02-20T03:19:20;101652.13;;;3.99;54.82
45040;BME280;30778;53.574;7.770;2023-02-20T03:21:49;101669.34;;;3.72;55.22
45040;BME280;30778;53.574;7.770;2023-02-20T03:24:18;101664.13;;;3.49;55.92
45040;BME280;30778;53.574;7.770;2023-02-20T03:26:45;101673.56;;;3.38;55.73
45040;BME280;30778;53.574;7.770;2023-02-20T03:29:16;101677.94;;;3.64;55.44
45040;BME280;30778;53.574;7.770;2023-02-20T03:31:51;101672.78;;;3.76;55.22
45040;BME280;30778;53.574;7.770;2023-02-20T03:34:38;101660.72;;;3.67;55.77
45040;BME280;30778;53.574;7.770;2023-02-20T03:37:25;101654.59;;;3.30;56.52
45040;BME280;30778;53.574;7.770;2023-02-20T03:40:12;101654.50;;;3.13;57.22
45040;BME280;30778;53.574;7.770;2023-02-20T03:43:14;101657.22;;;3.36;56.62
45040;BME280;30778;53.574;7.770;2023-02-20T03:45:58;101663.16;;;3.21;57.17
45040;BME280;30778;53.574;7.770;2023-02-20T03:48:33;101651.16;;;3.37;56.50
45040;BME280;30778;53.574;7.770;2023-02-20T03:51:02;101639.97;;;3.44;56.72
45040;BME280;30778;53.574;7.770;2023-02-20T03:53:57;101668.38;;;3.38;56.85
45040;BME280;30778;53.574;7.770;2023-02-20T03:56:34;101646.91;;;3.59;56.69
45040;BME280;30778;53.574;7.770;2023-02-20T03:59:12;101651.16;;;3.35;57.37
45040;BME280;30778;53.574;7.770;2023-02-20T04:01:41;101662.28;;;3.24;58.02
45040;BME280;30778;53.574;7.770;2023-02-20T04:04:13;101675.31;;;3.41;57.29
45040;BME280;30778;53.574;7.770;2023-02-20T04:06:41;101676.16;;;3.44;57.67
45040;BME280;30778;53.574;7.770;2023-02-20T04:09:17;101665.00;;;3.53;57.33
45040;BME280;30778;53.574;7.770;2023-02-20T04:11:49;101649.38;;;3.16;58.15
45040;BME280;30778;53.574;7.770;2023-02-20T04:14:20;101645.00;;;3.04;58.94
45040;BME280;30778;53.574;7.770;2023-02-20T04:16:51;101646.00;;;3.34;58.30
45040;BME280;30778;53.574;7.770;2023-02-20T04:19:19;101664.88;;;3.22;58.65
45040;BME280;30778;53.574;7.770;2023-02-20T04:22:00;101666.69;;;3.37;58.20
45040;BME280;30778;53.574;7.770;2023-02-20T04:25:08;101645.94;;;3.28;58.55
45040;BME280;30778;53.574;7.770;2023-02-20T04:27:37;101629.56;;;3.16;58.96
45040;BME280;30778;53.574;7.770;2023-02-20T04:30:03;101631.34;;;3.33;58.86
45040;BME280;30778;53.574;7.770;2023-02-20T04:32:30;101627.94;;;3.43;58.17
45040;BME280;30778;53.574;7.770;2023-02-20T04:34:56;101636.53;;;3.51;57.92
45040;BME280;30778;53.574;7.770;2023-02-20T04:37:25;101627.13;;;3.72;57.76
45040;BME280;30778;53.574;7.770;2023-02-20T04:39:53;101620.19;;;3.60;58.42
45040;BME280;30778;53.574;7.770;2023-02-20T04:42:21;101621.88;;;3.39;59.00
45040;BME280;30778;53.574;7.770;2023-02-20T04:44:48;101627.06;;;3.43;58.94
45040;BME280;30778;53.574;7.770;2023-02-20T04:47:16;101606.38;;;3.49;59.29
45040;BME280;30778;53.574;7.770;2023-02-20T04:49:43;101591.53;;;2.72;61.39
45040;BME280;30778;53.574;7.770;2023-02-20T04:52:10;101598.53;;;3.13;60.81
45040;BME280;30778;53.574;7.770;2023-02-20T04:54:36;101600.38;;;3.45;59.12
45040;BME280;30778;53.574;7.770;2023-02-20T04:57:05;101611.56;;;3.63;58.95
45040;BME280;30778;53.574;7.770;2023-02-20T04:59:34;101586.56;;;3.34;59.47
45040;BME280;30778;53.574;7.770;2023-02-20T05:01:59;101589.81;;;2.71;61.83
45040;BME280;30778;53.574;7.770;2023-02-20T05:04:27;101598.66;;;3.47;59.54
45040;BME280;30778;53.574;7.770;2023-02-20T05:06:53;101597.81;;;3.84;58.85
45040;BME280;30778;53.574;7.770;2023-02-20T05:09:20;101597.78;;;3.64;59.22
45040;BME280;30778;53.574;7.770;2023-02-20T05:11:46;101591.78;;;3.77;59.22
45040;BME280;30778;53.574;7.770;2023-02-20T05:14:13;101600.38;;;3.94;58.68
45040;BME280;30778;53.574;7.770;2023-02-20T05:16:39;101594.34;;;3.62;59.64
45040;BME280;30778;53.574;7.770;2023-02-20T05:19:06;101590.00;;;4.11;58.30
45040;BME280;30778;53.574;7.770;2023-02-20T05:21:33;101598.66;;;3.50;60.69
45040;BME280;30778;53.574;7.770;2023-02-20T05:24:17;101588.31;;;3.64;60.11
45040;BME280;30778;53.574;7.770;2023-02-20T05:26:42;101588.31;;;3.63;59.70
45040;BME280;30778;53.574;7.770;2023-02-20T05:29:11;101598.66;;;3.90;59.28
45040;BME280;30778;53.574;7.770;2023-02-20T05:31:40;101597.69;;;4.54;57.54
45040;BME280;30778;53.574;7.770;2023-02-20T05:34:06;101598.63;;;4.09;58.31
45040;BME280;30778;53.574;7.770;2023-02-20T05:36:34;101590.88;;;3.83;59.73
45040;BME280;30778;53.574;7.770;2023-02-20T05:39:00;101573.56;;;4.34;58.27
45040;BME280;30778;53.574;7.770;2023-02-20T05:41:25;101570.97;;;4.41;57.82
45040;BME280;30778;53.574;7.770;2023-02-20T05:43:51;101558.97;;;4.02;59.32
45040;BME280;30778;53.574;7.770;2023-02-20T05:46:18;101555.38;;;4.57;57.40
45040;BME280;30778;53.574;7.770;2023-02-20T05:48:50;101558.06;;;4.31;58.06
45040;BME280;30778;53.574;7.770;2023-02-20T05:51:24;101556.38;;;4.13;59.04
45040;BME280;30778;53.574;7.770;2023-02-20T05:53:49;101564.16;;;4.04;59.60
45040;BME280;30778;53.574;7.770;2023-02-20T05:56:15;101552.88;;;4.25;59.33
45040;BME280;30778;53.574;7.770;2023-02-20T05:58:44;101550.31;;;4.28;58.95
45040;BME280;30778;53.574;7.770;2023-02-20T06:01:17;101558.00;;;4.43;58.84
45040;BME280;30778;53.574;7.770;2023-02-20T06:03:43;101553.78;;;4.14;58.77
45040;BME280;30778;53.574;7.770;2023-02-20T06:06:11;101558.91;;;4.31;58.87
45040;BME280;30778;53.574;7.770;2023-02-20T06:08:36;101553.81;;;4.00;60.40
45040;BME280;30778;53.574;7.770;2023-02-20T06:11:02;101543.47;;;4.10;60.00
45040;BME280;30778;53.574;7.770;2023-02-20T06:13:31;101551.19;;;4.22;60.15
45040;BME280;30778;53.574;7.770;2023-02-20T06:15:59;101538.25;;;4.19;59.80
45040;BME280;30778;53.574;7.770;2023-02-20T06:18:27;101540.84;;;4.19;59.72
45040;BME280;30778;53.574;7.770;2023-02-20T06:20:52;101542.53;;;4.18;59.71
45040;BME280;30778;53.574;7.770;2023-02-20T06:23:18;101552.00;;;4.39;58.89
45040;BME280;30778;53.574;7.770;2023-02-20T06:25:43;101539.03;;;4.44;59.25
45040;BME280;30778;53.574;7.770;2023-02-20T06:28:09;101547.59;;;4.58;58.82
45040;BME280;30778;53.574;7.770;2023-02-20T06:30:34;101539.94;;;4.29;59.91
45040;BME280;30778;53.574;7.770;2023-02-20T06:33:00;101548.50;;;4.48;59.30
45040;BME280;30778;53.574;7.770;2023-02-20T06:35:25;101550.13;;;4.75;58.43
45040;BME280;30778;53.574;7.770;2023-02-20T06:37:51;101527.91;;;4.16;60.57
45040;BME280;30778;53.574;7.770;2023-02-20T06:40:18;101547.69;;;4.35;59.94
45040;BME280;30778;53.574;7.770;2023-02-20T06:42:44;101546.75;;;4.55;58.96
45040;BME280;30778;53.574;7.770;2023-02-20T06:45:12;101553.53;;;4.83;58.02
45040;BME280;30778;53.574;7.770;2023-02-20T06:47:37;101568.34;;;4.51;59.45
45040;BME280;30778;53.574;7.770;2023-02-20T06:50:03;101568.19;;;4.83;58.90
45040;BME280;30778;53.574;7.770;2023-02-20T06:52:29;101568.41;;;4.18;60.23
45040;BME280;30778;53.574;7.770;2023-02-20T06:54:54;101539.16;;;4.06;60.79
45040;BME280;30778;53.574;7.770;2023-02-20T06:57:20;101571.78;;;4.57;59.74
45040;BME280;30778;53.574;7.770;2023-02-20T06:59:46;101566.56;;;4.65;59.45
45040;BME280;30778;53.574;7.770;2023-02-20T07:02:14;101566.59;;;4.51;59.54
45040;BME280;30778;53.574;7.770;2023-02-20T07:04:47;101579.44;;;4.80;58.66
45040;BME280;30778;53.574;7.770;2023-02-20T07:07:13;101577.75;;;4.67;59.45
45040;BME280;30778;53.574;7.770;2023-02-20T07:09:39;101586.41;;;4.69;59.48
45040;BME280;30778;53.574;7.770;2023-02-20T07:12:04;101587.19;;;4.90;58.73
45040;BME280;30778;53.574;7.770;2023-02-20T07:14:30;101580.19;;;5.09;58.07
45040;BME280;30778;53.574;7.770;2023-02-20T07:16:57;101582.06;;;4.70;58.72
45040;BME280;30778;53.574;7.770;2023-02-20T07:19:23;101572.66;;;4.55;59.85
45040;BME280;30778;53.574;7.770;2023-02-20T07:21:49;101587.38;;;4.39;60.55
45040;BME280;30778;53.574;7.770;2023-02-20T07:24:15;101588.88;;;5.00;58.94
45040;BME280;30778;53.574;7.770;2023-02-20T07:26:41;101581.09;;;4.98;58.67
45040;BME280;30778;53.574;7.770;2023-02-20T07:29:07;101587.03;;;5.22;58.06
45040;BME280;30778;53.574;7.770;2023-02-20T07:31:33;101578.59;;;4.80;59.32
45040;BME280;30778;53.574;7.770;2023-02-20T07:33:59;101582.72;;;5.16;58.67
45040;BME280;30778;53.574;7.770;2023-02-20T07:36:32;101570.78;;;4.97;59.23
45040;BME280;30778;53.574;7.770;2023-02-20T07:38:59;101577.78;;;4.64;60.33
45040;BME280;30778;53.574;7.770;2023-02-20T07:41:28;101561.34;;;4.71;59.92
45040;BME280;30778;53.574;7.770;2023-02-20T07:43:55;101580.19;;;5.09;59.03
45040;BME280;30778;53.574;7.770;2023-02-20T07:46:28;101572.53;;;4.82;59.58
45040;BME280;30778;53.574;7.770;2023-02-20T07:48:59;101575.88;;;5.09;58.94
45040;BME280;30778;53.574;7.770;2023-02-20T07:51:25;101571.59;;;5.02;59.04
45040;BME280;30778;53.574;7.770;2023-02-20T07:53:51;101570.84;;;4.69;60.03
45040;BME280;30778;53.574;7.770;2023-02-20T07:56:22;101579.28;;;5.14;58.50
45040;BME280;30778;53.574;7.770;2023-02-20T07:58:53;101578.59;;;4.80;59.55
45040;BME280;30778;53.574;7.770;2023-02-20T08:01:19;101567.53;;;4.41;60.52
45040;BME280;30778;53.574;7.770;2023-02-20T08:03:45;101575.88;;;5.09;59.05
45040;BME280;30778;53.574;7.770;2023-02-20T08:06:11;101585.28;;;5.24;58.68
45040;BME280;30778;53.574;7.770;2023-02-20T08:08:37;101570.91;;;4.57;60.65
45040;BME280;30778;53.574;7.770;2023-02-20T08:11:05;101564.63;;;5.12;58.81
45040;BME280;30778;53.574;7.770;2023-02-20T08:13:33;101586.13;;;5.28;58.58
45040;BME280;30778;53.574;7.770;2023-02-20T08:15:59;101556.25;;;4.57;60.21
45040;BME280;30778;53.574;7.770;2023-02-20T08:18:24;101552.63;;;4.97;59.21
45040;BME280;30778;53.574;7.770;2023-02-20T08:20:50;101543.19;;;4.80;59.52
45040;BME280;30778;53.574;7.770;2023-02-20T08:23:22;101556.81;;;5.18;58.53
45040;BME280;30778;53.574;7.770;2023-02-20T08:25:47;101552.50;;;5.12;59.11
45040;BME280;30778;53.574;7.770;2023-02-20T08:28:13;101553.00;;;5.66;57.57
45040;BME280;30778;53.574;7.770;2023-02-20T08:30:43;101550.44;;;5.62;57.41
45040;BME280;30778;53.574;7.770;2023-02-20T08:33:09;101539.50;;;5.24;58.42
45040;BME280;30778;53.574;7.770;2023-02-20T08:35:35;101543.84;;;5.18;58.96
45040;BME280;30778;53.574;7.770;2023-02-20T08:38:02;101532.38;;;5.53;57.76
45040;BME280;30778;53.574;7.770;2023-02-20T08:40:28;101547.78;;;5.68;57.31
45040;BME280;30778;53.574;7.770;2023-02-20T08:42:53;101548.78;;;5.52;57.73
45040;BME280;30778;53.574;7.770;2023-02-20T08:45:19;101547.44;;;5.01;59.24
45040;BME280;30778;53.574;7.770;2023-02-20T08:47:44;101552.91;;;5.76;57.26
45040;BME280;30778;53.574;7.770;2023-02-20T08:50:13;101557.25;;;5.72;57.34
45040;BME280;30778;53.574;7.770;2023-02-20T08:52:38;101554.31;;;5.01;58.96
45040;BME280;30778;53.574;7.770;2023-02-20T08:55:04;101553.69;;;5.87;56.68
45040;BME280;30778;53.574;7.770;2023-02-20T08:57:29;101561.00;;;5.36;58.30
45040;BME280;30778;53.574;7.770;2023-02-20T08:59:55;101553.72;;;5.81;57.27
45040;BME280;30778;53.574;7.770;2023-02-20T09:02:22;101549.91;;;5.21;58.83
45040;BME280;30778;53.574;7.770;2023-02-20T09:04:54;101528.28;;;5.24;58.55
45040;BME280;30778;53.574;7.770;2023-02-20T09:07:20;101535.97;;;5.32;58.70
45040;BME280;30778;53.574;7.770;2023-02-20T09:09:48;101518.38;;;5.71;57.73
45040;BME280;30778;53.574;7.770;2023-02-20T09:12:15;101527.28;;;5.40;57.91
45040;BME280;30778;53.574;7.770;2023-02-20T09:14:41;101517.91;;;5.21;58.86
45040;BME280;30778;53.574;7.770;2023-02-20T09:17:06;101528.72;;;5.75;57.32
45040;BME280;30778;53.574;7.770;2023-02-20T09:19:32;101535.00;;;5.48;57.96
45040;BME280;30778;53.574;7.770;2023-02-20T09:21:58;101535.81;;;5.53;58.22
45040;BME280;30778;53.574;7.770;2023-02-20T09:24:23;101535.81;;;5.53;57.66
45040;BME280;30778;53.574;7.770;2023-02-20T09:26:49;101539.97;;;5.73;57.37
45040;BME280;30778;53.574;7.770;2023-02-20T09:29:15;101535.97;;;5.32;58.72
45040;BME280;30778;53.574;7.770;2023-02-20T09:31:41;101523.91;;;5.29;58.54
45040;BME280;30778;53.574;7.770;2023-02-20T09:34:07;101532.66;;;6.13;56.49
45040;BME280;30778;53.574;7.770;2023-02-20T09:36:35;101520.44;;;6.21;56.47
45040;BME280;30778;53.574;7.770;2023-02-20T09:39:03;101512.59;;;5.38;58.86
45040;BME280;30778;53.574;7.770;2023-02-20T09:44:19;101512.56;;;6.31;56.28
45040;BME280;30778;53.574;7.770;2023-02-20T09:46:49;101512.22;;;5.81;57.24
45040;BME280;30778;53.574;7.770;2023-02-20T09:49:19;101490.03;;;6.34;56.00
45040;BME280;30778;53.574;7.770;2023-02-20T09:51:55;101501.06;;;5.73;57.85
45040;BME280;30778;53.574;7.770;2023-02-20T09:54:33;101497.88;;;5.46;58.79
45040;BME280;30778;53.574;7.770;2023-02-20T09:57:05;101514.56;;;6.05;57.13
45040;BME280;30778;53.574;7.770;2023-02-20T09:59:41;101517.34;;;5.87;57.09
45040;BME280;30778;53.574;7.770;2023-02-20T10:04:58;101519.38;;;6.39;56.05
45040;BME280;30778;53.574;7.770;2023-02-20T10:07:35;101515.03;;;6.41;56.19
45040;BME280;30778;53.574;7.770;2023-02-20T10:10:17;101509.84;;;6.41;55.85
45040;BME280;30778;53.574;7.770;2023-02-20T10:13:05;101527.94;;;6.49;55.87
45040;BME280;30778;53.574;7.770;2023-02-20T10:15:47;101521.78;;;5.74;58.02
45040;BME280;30778;53.574;7.770;2023-02-20T10:24:01;101509.84;;;6.43;55.52
45040;BME280;30778;53.574;7.770;2023-02-20T10:26:34;101510.31;;;5.97;56.61
45040;BME280;30778;53.574;7.770;2023-02-20T10:29:34;101508.97;;;6.42;55.95
45040;BME280;30778;53.574;7.770;2023-02-20T10:32:06;101534.66;;;6.67;54.90
45040;BME280;30778;53.574;7.770;2023-02-20T10:34:43;101519.50;;;6.33;56.05
45040;BME280;30778;53.574;7.770;2023-02-20T10:37:20;101530.69;;;6.37;56.18
45040;BME280;30778;53.574;7.770;2023-02-20T10:39:53;101490.88;;;6.38;56.10
45040;BME280;30778;53.574;7.770;2023-02-20T10:42:29;101506.75;;;6.07;56.55
45040;BME280;30778;53.574;7.770;2023-02-20T10:45:02;101521.25;;;6.31;56.30
45040;BME280;30778;53.574;7.770;2023-02-20T10:47:49;101514.25;;;6.35;56.13
45040;BME280;30778;53.574;7.770;2023-02-20T10:50:40;101517.31;;;6.69;55.40
45040;BME280;30778;53.574;7.770;2023-02-20T10:53:18;101512.88;;;6.76;54.61
45040;BME280;30778;53.574;7.770;2023-02-20T10:58:35;101519.38;;;6.39;55.59
45040;BME280;30778;53.574;7.770;2023-02-20T11:01:07;101516.97;;;6.94;54.39
45040;BME280;30778;53.574;7.770;2023-02-20T11:06:17;101533.00;;;6.60;55.14
45040;BME280;30778;53.574;7.770;2023-02-20T11:08:44;101520.03;;;6.58;55.16
45040;BME280;30778;53.574;7.770;2023-02-20T11:11:29;101542.56;;;6.56;55.27
45040;BME280;30778;53.574;7.770;2023-02-20T11:13:57;101536.41;;;7.25;53.72
45040;BME280;30778;53.574;7.770;2023-02-20T11:16:29;101542.44;;;6.67;54.86
45040;BME280;30778;53.574;7.770;2023-02-20T11:19:03;101522.56;;;6.63;55.18
45040;BME280;30778;53.574;7.770;2023-02-20T11:21:41;101529.19;;;6.87;54.28
45040;BME280;30778;53.574;7.770;2023-02-20T11:24:34;101539.84;;;6.67;55.05
45040;BME280;30778;53.574;7.770;2023-02-20T11:27:01;101518.78;;;6.85;54.79
45040;BME280;30778;53.574;7.770;2023-02-20T11:29:47;101518.03;;;6.77;54.69
45040;BME280;30778;53.574;7.770;2023-02-20T11:32:21;101509.38;;;7.36;53.38
45040;BME280;30778;53.574;7.770;2023-02-20T11:35:05;101505.78;;;6.87;54.02
45040;BME280;30778;53.574;7.770;2023-02-20T11:37:38;101509.44;;;6.72;54.65
45040;BME280;30778;53.574;7.770;2023-02-20T11:40:13;101493.41;;;7.04;53.75
45040;BME280;30778;53.574;7.770;2023-02-20T11:42:39;101523.28;;;6.76;54.41
45040;BME280;30778;53.574;7.770;2023-02-20T11:45:13;101518.59;;;6.33;55.76
45040;BME280;30778;53.574;7.770;2023-02-20T11:47:42;101498.00;;;6.85;54.69
45040;BME280;30778;53.574;7.770;2023-02-20T11:50:12;101515.19;;;6.96;53.95
45040;BME280;30778;53.574;7.770;2023-02-20T11:52:56;101505.78;;;7.43;52.71
45040;BME280;30778;53.574;7.770;2023-02-20T11:55:24;101497.84;;;6.98;53.70
45040;BME280;30778;53.574;7.770;2023-02-20T11:57:52;101496.03;;;7.03;54.02
45040;BME280;30778;53.574;7.770;2023-02-20T12:03:09;101492.03;;;7.35;53.15
45040;BME280;30778;53.574;7.770;2023-02-20T12:05:45;101492.75;;;6.90;54.40
45040;BME280;30778;53.574;7.770;2023-02-20T12:08:33;101500.81;;;6.68;55.28
45040;BME280;30778;53.574;7.770;2023-02-20T12:11:11;101492.94;;;6.76;54.89
45040;BME280;30778;53.574;7.770;2023-02-20T12:13:40;101491.25;;;6.72;54.60
45040;BME280;30778;53.574;7.770;2023-02-20T12:16:40;101497.63;;;7.11;54.12
45040;BME280;30778;53.574;7.770;2023-02-20T12:24:57;101496.84;;;6.44;55.71
45040;BME280;30778;53.574;7.770;2023-02-20T12:38:48;101493.38;;;7.06;54.98
45040;BME280;30778;53.574;7.770;2023-02-20T12:47:56;101481.97;;;7.13;54.79
45040;BME280;30778;53.574;7.770;2023-02-20T12:50:27;101459.16;;;6.76;55.77
45040;BME280;30778;53.574;7.770;2023-02-20T12:53:12;101460.38;;;6.50;55.99
45040;BME280;30778;53.574;7.770;2023-02-20T12:56:03;101475.09;;;7.10;54.88
45040;BME280;30778;53.574;7.770;2023-02-20T13:01:05;101473.38;;;7.62;53.78
45040;BME280;30778;53.574;7.770;2023-02-20T13:03:43;101475.53;;;6.81;55.31
45040;BME280;30778;53.574;7.770;2023-02-20T13:06:17;101465.22;;;6.75;55.95
45040;BME280;30778;53.574;7.770;2023-02-20T13:09:19;101454.41;;;7.04;55.12
45040;BME280;30778;53.574;7.770;2023-02-20T13:11:48;101468.44;;;6.93;55.00
45040;BME280;30778;53.574;7.770;2023-02-20T13:14:27;101461.06;;;7.22;54.47
45040;BME280;30778;53.574;7.770;2023-02-20T13:17:07;101461.91;;;6.67;55.82
45040;BME280;30778;53.574;7.770;2023-02-20T13:19:43;101458.91;;;7.46;54.00
45040;BME280;30778;53.574;7.770;2023-02-20T13:22:13;101462.84;;;6.61;56.38
45040;BME280;30778;53.574;7.770;2023-02-20T13:24:40;101457.06;;;6.42;56.63
45040;BME280;30778;53.574;7.770;2023-02-20T13:27:29;101451.38;;;6.76;56.18
45040;BME280;30778;53.574;7.770;2023-02-20T13:29:57;101462.59;;;6.12;57.39
45040;BME280;30778;53.574;7.770;2023-02-20T13:32:30;101464.88;;;7.00;55.44
45040;BME280;30778;53.574;7.770;2023-02-20T13:38:10;101437.69;;;6.66;56.05
45040;BME280;30778;53.574;7.770;2023-02-20T13:40:40;101462.81;;;6.63;56.49
45040;BME280;30778;53.574;7.770;2023-02-20T13:45:42;101463.44;;;6.80;56.15
45040;BME280;30778;53.574;7.770;2023-02-20T13:53:46;101446.25;;;6.70;56.16
45040;BME280;30778;53.574;7.770;2023-02-20T13:56:22;101452.25;;;6.75;56.40
45040;BME280;30778;53.574;7.770;2023-02-20T13:58:54;101472.25;;;7.27;54.81
45040;BME280;30778;53.574;7.770;2023-02-20T14:01:28;101446.31;;;7.23;55.08
45040;BME280;30778;53.574;7.770;2023-02-20T14:04:05;101460.72;;;6.88;55.72
45040;BME280;30778;53.574;7.770;2023-02-20T14:06:33;101469.28;;;6.95;55.45
45040;BME280;30778;53.574;7.770;2023-02-20T14:09:07;101472.31;;;6.64;56.50
45040;BME280;30778;53.574;7.770;2023-02-20T14:11:38;101440.44;;;7.10;55.32
45040;BME280;30778;53.574;7.770;2023-02-20T14:14:09;101442.13;;;7.14;55.22
45040;BME280;30778;53.574;7.770;2023-02-20T14:16:38;101419.47;;;7.22;54.97
45040;BME280;30778;53.574;7.770;2023-02-20T14:19:20;101443.63;;;7.27;55.00
45040;BME280;30778;53.574;7.770;2023-02-20T14:21:49;101444.28;;;6.87;55.93
45040;BME280;30778;53.574;7.770;2023-02-20T14:24:18;101434.66;;;6.93;55.89
45040;BME280;30778;53.574;7.770;2023-02-20T14:26:46;101435.59;;;7.40;54.29
45040;BME280;30778;53.574;7.770;2023-02-20T14:29:32;101452.16;;;7.36;54.49
45040;BME280;30778;53.574;7.770;2023-02-20T14:32:01;101446.63;;;7.04;55.31
45040;BME280;30778;53.574;7.770;2023-02-20T14:34:45;101455.28;;;7.05;55.54
45040;BME280;30778;53.574;7.770;2023-02-20T14:37:23;101454.31;;;6.52;56.65
45040;BME280;30778;53.574;7.770;2023-02-20T14:40:04;101456.78;;;7.18;55.32